sensor_id;sensor_type;location;lat;lon;timestamp;temperature;humidity
14875;DHT22;7529;48.170;17.138;2022-09-03T00:01:19;13.90;52.70
14875;DHT22;7529;48.170;17.138;2022-09-03T00:06:00;13.80;52.50
14875;DHT22;7529;48.170;17.138;2022-09-03T00:10:42;13.80;53.50
14875;DHT22;7529;48.170;17.138;2022-09-03T00:15:11;13.80;53.50
14875;DHT22;7529;48.170;17.138;2022-09-03T00:19:31;13.80;53.30
14875;DHT22;7529;48.170;17.138;2022-09-03T00:23:47;13.70;53.40
14875;DHT22;7529;48.170;17.138;2022-09-03T00:28:01;13.70;53.70
14875;DHT22;7529;48.170;17.138;2022-09-03T00:32:47;13.60;53.80
14875;DHT22;7529;48.170;17.138;2022-09-03T00:37:03;13.50;54.80
14875;DHT22;7529;48.170;17.138;2022-09-03T00:46:14;13.50;54.70
14875;DHT22;7529;48.170;17.138;2022-09-03T00:55:55;13.30;55.50
14875;DHT22;7529;48.170;17.138;2022-09-03T01:00:13;13.20;55.50
14875;DHT22;7529;48.170;17.138;2022-09-03T01:04:53;13.30;55.30
14875;DHT22;7529;48.170;17.138;2022-09-03T01:37:22;13.20;55.90
14875;DHT22;7529;48.170;17.138;2022-09-03T01:41:53;13.20;56.10
14875;DHT22;7529;48.170;17.138;2022-09-03T01:46:39;13.10;56.10
14875;DHT22;7529;48.170;17.138;2022-09-03T02:00:19;12.80;57.00
14875;DHT22;7529;48.170;17.138;2022-09-03T02:04:31;12.70;57.20
14875;DHT22;7529;48.170;17.138;2022-09-03T02:08:42;12.70;57.40
14875;DHT22;7529;48.170;17.138;2022-09-03T02:12:59;12.60;57.60
14875;DHT22;7529;48.170;17.138;2022-09-03T02:17:22;12.60;58.50
14875;DHT22;7529;48.170;17.138;2022-09-03T02:21:37;12.50;58.10
14875;DHT22;7529;48.170;17.138;2022-09-03T02:25:58;12.50;58.40
14875;DHT22;7529;48.170;17.138;2022-09-03T02:30:11;12.30;58.70
14875;DHT22;7529;48.170;17.138;2022-09-03T02:34:23;12.50;58.60
14875;DHT22;7529;48.170;17.138;2022-09-03T02:38:34;12.50;58.60
14875;DHT22;7529;48.170;17.138;2022-09-03T02:42:47;12.40;58.80
14875;DHT22;7529;48.170;17.138;2022-09-03T02:47:01;12.40;59.10
14875;DHT22;7529;48.170;17.138;2022-09-03T02:51:15;12.40;59.20
14875;DHT22;7529;48.170;17.138;2022-09-03T02:55:26;12.20;59.20
14875;DHT22;7529;48.170;17.138;2022-09-03T02:59:39;12.20;59.50
14875;DHT22;7529;48.170;17.138;2022-09-03T03:03:52;12.20;60.40
14875;DHT22;7529;48.170;17.138;2022-09-03T03:08:03;12.20;60.40
14875;DHT22;7529;48.170;17.138;2022-09-03T03:12:15;12.10;59.90
14875;DHT22;7529;48.170;17.138;2022-09-03T03:16:28;12.00;60.10
14875;DHT22;7529;48.170;17.138;2022-09-03T03:20:40;12.00;60.40
14875;DHT22;7529;48.170;17.138;2022-09-03T03:24:53;11.90;60.50
14875;DHT22;7529;48.170;17.138;2022-09-03T03:29:06;11.90;60.70
14875;DHT22;7529;48.170;17.138;2022-09-03T03:33:18;11.80;60.90
14875;DHT22;7529;48.170;17.138;2022-09-03T03:37:31;11.80;61.10
14875;DHT22;7529;48.170;17.138;2022-09-03T03:41:43;11.80;61.30
14875;DHT22;7529;48.170;17.138;2022-09-03T03:45:58;11.80;61.50
14875;DHT22;7529;48.170;17.138;2022-09-03T03:50:10;11.80;61.80
14875;DHT22;7529;48.170;17.138;2022-09-03T03:54:21;11.90;61.90
14875;DHT22;7529;48.170;17.138;2022-09-03T03:58:33;12.00;62.00
14875;DHT22;7529;48.170;17.138;2022-09-03T04:02:44;12.00;62.00
14875;DHT22;7529;48.170;17.138;2022-09-03T04:06:57;12.00;62.20
14875;DHT22;7529;48.170;17.138;2022-09-03T04:11:10;12.00;62.90
14875;DHT22;7529;48.170;17.138;2022-09-03T04:15:24;12.10;62.40
14875;DHT22;7529;48.170;17.138;2022-09-03T04:19:35;12.00;62.40
14875;DHT22;7529;48.170;17.138;2022-09-03T04:23:50;12.00;62.50
14875;DHT22;7529;48.170;17.138;2022-09-03T04:28:02;12.00;62.80
14875;DHT22;7529;48.170;17.138;2022-09-03T04:32:14;12.00;62.80
14875;DHT22;7529;48.170;17.138;2022-09-03T04:36:44;11.90;62.90
14875;DHT22;7529;48.170;17.138;2022-09-03T04:40:57;12.00;63.00
14875;DHT22;7529;48.170;17.138;2022-09-03T04:45:10;12.00;63.00
14875;DHT22;7529;48.170;17.138;2022-09-03T04:49:25;12.00;63.00
14875;DHT22;7529;48.170;17.138;2022-09-03T04:53:40;12.00;63.10
14875;DHT22;7529;48.170;17.138;2022-09-03T04:57:53;12.00;63.20
14875;DHT22;7529;48.170;17.138;2022-09-03T05:02:04;12.10;63.10
14875;DHT22;7529;48.170;17.138;2022-09-03T05:06:16;12.10;63.30
14875;DHT22;7529;48.170;17.138;2022-09-03T05:10:28;12.20;63.50
14875;DHT22;7529;48.170;17.138;2022-09-03T05:14:40;12.30;63.40
14875;DHT22;7529;48.170;17.138;2022-09-03T05:18:53;12.40;63.10
14875;DHT22;7529;48.170;17.138;2022-09-03T05:23:06;12.50;63.10
14875;DHT22;7529;48.170;17.138;2022-09-03T05:27:18;12.60;62.90
14875;DHT22;7529;48.170;17.138;2022-09-03T05:31:29;12.80;62.90
14875;DHT22;7529;48.170;17.138;2022-09-03T05:35:41;13.00;62.70
14875;DHT22;7529;48.170;17.138;2022-09-03T05:39:53;13.10;62.40
14875;DHT22;7529;48.170;17.138;2022-09-03T05:44:04;13.30;62.20
14875;DHT22;7529;48.170;17.138;2022-09-03T05:48:16;13.50;62.00
14875;DHT22;7529;48.170;17.138;2022-09-03T05:52:31;13.70;61.80
14875;DHT22;7529;48.170;17.138;2022-09-03T05:56:43;14.00;61.60
14875;DHT22;7529;48.170;17.138;2022-09-03T06:00:54;14.30;61.30
14875;DHT22;7529;48.170;17.138;2022-09-03T06:05:06;14.50;61.10
14875;DHT22;7529;48.170;17.138;2022-09-03T06:09:19;14.60;60.90
14875;DHT22;7529;48.170;17.138;2022-09-03T06:13:33;14.80;60.80
14875;DHT22;7529;48.170;17.138;2022-09-03T06:17:44;14.90;60.80
14875;DHT22;7529;48.170;17.138;2022-09-03T06:21:56;15.10;60.70
14875;DHT22;7529;48.170;17.138;2022-09-03T06:26:10;15.20;60.70
14875;DHT22;7529;48.170;17.138;2022-09-03T06:30:25;15.30;60.50
14875;DHT22;7529;48.170;17.138;2022-09-03T06:34:38;15.50;60.40
14875;DHT22;7529;48.170;17.138;2022-09-03T06:38:54;15.60;60.20
14875;DHT22;7529;48.170;17.138;2022-09-03T06:43:06;15.70;61.00
14875;DHT22;7529;48.170;17.138;2022-09-03T06:47:18;15.90;60.10
14875;DHT22;7529;48.170;17.138;2022-09-03T06:51:31;16.00;60.10
14875;DHT22;7529;48.170;17.138;2022-09-03T06:55:51;16.20;60.00
14875;DHT22;7529;48.170;17.138;2022-09-03T07:00:05;16.30;59.90
14875;DHT22;7529;48.170;17.138;2022-09-03T07:04:17;16.50;59.90
14875;DHT22;7529;48.170;17.138;2022-09-03T07:08:30;16.60;59.80
14875;DHT22;7529;48.170;17.138;2022-09-03T07:12:43;16.80;59.80
14875;DHT22;7529;48.170;17.138;2022-09-03T07:16:54;17.00;59.70
14875;DHT22;7529;48.170;17.138;2022-09-03T07:21:09;17.20;59.60
14875;DHT22;7529;48.170;17.138;2022-09-03T07:25:23;17.40;59.60
14875;DHT22;7529;48.170;17.138;2022-09-03T07:29:36;17.60;59.50
14875;DHT22;7529;48.170;17.138;2022-09-03T07:33:47;17.80;59.50
14875;DHT22;7529;48.170;17.138;2022-09-03T07:37:59;17.90;59.40
14875;DHT22;7529;48.170;17.138;2022-09-03T07:42:11;18.10;59.20
14875;DHT22;7529;48.170;17.138;2022-09-03T07:46:24;18.40;59.10
14875;DHT22;7529;48.170;17.138;2022-09-03T07:50:36;18.60;59.00
14875;DHT22;7529;48.170;17.138;2022-09-03T07:54:50;18.70;58.90
14875;DHT22;7529;48.170;17.138;2022-09-03T07:59:02;18.80;58.80
14875;DHT22;7529;48.170;17.138;2022-09-03T08:03:14;19.00;58.70
14875;DHT22;7529;48.170;17.138;2022-09-03T08:07:28;21.50;56.30
14875;DHT22;7529;48.170;17.138;2022-09-03T08:11:42;26.30;53.90
14875;DHT22;7529;48.170;17.138;2022-09-03T08:15:54;30.50;51.40
14875;DHT22;7529;48.170;17.138;2022-09-03T08:45:49;33.40;48.40
14875;DHT22;7529;48.170;17.138;2022-09-03T08:54:30;43.70;32.60
14875;DHT22;7529;48.170;17.138;2022-09-03T08:58:42;44.00;33.30
14875;DHT22;7529;48.170;17.138;2022-09-03T09:07:55;44.70;30.40
14875;DHT22;7529;48.170;17.138;2022-09-03T09:12:16;45.20;30.20
14875;DHT22;7529;48.170;17.138;2022-09-03T09:21:27;47.00;29.00
14875;DHT22;7529;48.170;17.138;2022-09-03T09:25:50;47.30;27.70
14875;DHT22;7529;48.170;17.138;2022-09-03T09:30:05;48.60;27.20
14875;DHT22;7529;48.170;17.138;2022-09-03T09:34:18;50.00;27.00
14875;DHT22;7529;48.170;17.138;2022-09-03T09:38:32;50.00;25.90
14875;DHT22;7529;48.170;17.138;2022-09-03T09:42:46;50.70;25.70
14875;DHT22;7529;48.170;17.138;2022-09-03T09:47:09;52.60;25.20
14875;DHT22;7529;48.170;17.138;2022-09-03T09:51:29;51.90;24.00
14875;DHT22;7529;48.170;17.138;2022-09-03T09:55:53;51.30;24.20
14875;DHT22;7529;48.170;17.138;2022-09-03T10:00:11;52.10;23.80
14875;DHT22;7529;48.170;17.138;2022-09-03T10:04:29;53.50;24.20
14875;DHT22;7529;48.170;17.138;2022-09-03T10:08:41;53.40;23.50
14875;DHT22;7529;48.170;17.138;2022-09-03T10:13:07;52.00;23.60
14875;DHT22;7529;48.170;17.138;2022-09-03T10:17:41;52.30;23.30
14875;DHT22;7529;48.170;17.138;2022-09-03T10:22:16;52.30;22.30
14875;DHT22;7529;48.170;17.138;2022-09-03T10:26:29;51.10;22.10
14875;DHT22;7529;48.170;17.138;2022-09-03T10:30:53;50.40;22.20
14875;DHT22;7529;48.170;17.138;2022-09-03T10:35:28;50.00;22.60
14875;DHT22;7529;48.170;17.138;2022-09-03T10:49:45;51.20;21.70
14875;DHT22;7529;48.170;17.138;2022-09-03T10:59:52;51.40;21.50
14875;DHT22;7529;48.170;17.138;2022-09-03T11:13:32;51.90;21.50
14875;DHT22;7529;48.170;17.138;2022-09-03T11:23:03;51.00;20.90
14875;DHT22;7529;48.170;17.138;2022-09-03T11:32:17;52.60;21.10
14875;DHT22;7529;48.170;17.138;2022-09-03T11:36:34;50.80;21.10
14875;DHT22;7529;48.170;17.138;2022-09-03T11:49:51;51.40;21.00
14875;DHT22;7529;48.170;17.138;2022-09-03T12:02:48;45.30;21.40
14875;DHT22;7529;48.170;17.138;2022-09-03T12:16:21;46.90;21.90
14875;DHT22;7529;48.170;17.138;2022-09-03T12:25:13;47.70;21.60
14875;DHT22;7529;48.170;17.138;2022-09-03T12:29:27;48.20;21.80
14875;DHT22;7529;48.170;17.138;2022-09-03T12:33:40;49.90;21.90
14875;DHT22;7529;48.170;17.138;2022-09-03T12:37:52;50.40;21.50
14875;DHT22;7529;48.170;17.138;2022-09-03T12:42:06;49.60;21.20
14875;DHT22;7529;48.170;17.138;2022-09-03T12:46:21;46.90;21.00
14875;DHT22;7529;48.170;17.138;2022-09-03T12:50:37;46.50;21.30
14875;DHT22;7529;48.170;17.138;2022-09-03T12:54:58;44.30;21.50
14875;DHT22;7529;48.170;17.138;2022-09-03T12:59:16;43.60;22.00
14875;DHT22;7529;48.170;17.138;2022-09-03T13:03:33;43.80;22.10
14875;DHT22;7529;48.170;17.138;2022-09-03T13:07:55;42.60;22.30
14875;DHT22;7529;48.170;17.138;2022-09-03T13:12:31;41.90;22.70
14875;DHT22;7529;48.170;17.138;2022-09-03T13:21:14;43.10;22.50
14875;DHT22;7529;48.170;17.138;2022-09-03T13:30:12;40.90;23.00
14875;DHT22;7529;48.170;17.138;2022-09-03T13:39:39;38.70;23.90
14875;DHT22;7529;48.170;17.138;2022-09-03T13:43:57;38.10;24.20
14875;DHT22;7529;48.170;17.138;2022-09-03T13:58:23;41.00;24.00
14875;DHT22;7529;48.170;17.138;2022-09-03T14:02:47;42.20;23.70
14875;DHT22;7529;48.170;17.138;2022-09-03T14:07:14;42.40;23.50
14875;DHT22;7529;48.170;17.138;2022-09-03T14:20:58;42.10;23.60
14875;DHT22;7529;48.170;17.138;2022-09-03T14:25:18;40.20;23.90
14875;DHT22;7529;48.170;17.138;2022-09-03T14:29:33;38.70;24.40
14875;DHT22;7529;48.170;17.138;2022-09-03T14:47:52;32.80;27.30
14875;DHT22;7529;48.170;17.138;2022-09-03T14:56:49;33.50;27.10
14875;DHT22;7529;48.170;17.138;2022-09-03T15:01:15;32.60;27.50
14875;DHT22;7529;48.170;17.138;2022-09-03T15:10:37;33.80;27.80
14875;DHT22;7529;48.170;17.138;2022-09-03T15:14:56;36.70;26.90
14875;DHT22;7529;48.170;17.138;2022-09-03T15:33:34;39.10;25.90
14875;DHT22;7529;48.170;17.138;2022-09-03T15:47:52;35.20;26.80
14875;DHT22;7529;48.170;17.138;2022-09-03T15:57:06;32.40;28.00
14875;DHT22;7529;48.170;17.138;2022-09-03T16:01:46;30.10;29.50
14875;DHT22;7529;48.170;17.138;2022-09-03T16:11:09;31.10;29.60
14875;DHT22;7529;48.170;17.138;2022-09-03T16:15:48;31.70;29.20
14875;DHT22;7529;48.170;17.138;2022-09-03T16:20:06;30.50;29.80
14875;DHT22;7529;48.170;17.138;2022-09-03T16:24:32;29.40;30.40
14875;DHT22;7529;48.170;17.138;2022-09-03T17:07:37;26.40;34.80
14875;DHT22;7529;48.170;17.138;2022-09-03T17:21:49;24.20;37.10
14875;DHT22;7529;48.170;17.138;2022-09-03T17:26:10;23.80;38.40
14875;DHT22;7529;48.170;17.138;2022-09-03T17:30:42;23.60;38.20
14875;DHT22;7529;48.170;17.138;2022-09-03T17:35:30;23.30;38.30
14875;DHT22;7529;48.170;17.138;2022-09-03T17:39:58;23.10;39.00
14875;DHT22;7529;48.170;17.138;2022-09-03T17:49:19;22.90;39.60
14875;DHT22;7529;48.170;17.138;2022-09-03T18:08:23;22.70;39.70
14875;DHT22;7529;48.170;17.138;2022-09-03T18:12:55;22.50;39.20
14875;DHT22;7529;48.170;17.138;2022-09-03T18:17:58;22.30;39.70
14875;DHT22;7529;48.170;17.138;2022-09-03T18:22:10;22.20;40.00
14875;DHT22;7529;48.170;17.138;2022-09-03T18:26:46;22.10;39.60
14875;DHT22;7529;48.170;17.138;2022-09-03T18:31:19;22.00;39.90
14875;DHT22;7529;48.170;17.138;2022-09-03T18:35:50;22.00;40.20
14875;DHT22;7529;48.170;17.138;2022-09-03T18:40:33;22.00;40.10
14875;DHT22;7529;48.170;17.138;2022-09-03T18:45:48;22.00;40.40
14875;DHT22;7529;48.170;17.138;2022-09-03T18:55:19;22.00;40.20
14875;DHT22;7529;48.170;17.138;2022-09-03T19:00:15;21.90;40.20
14875;DHT22;7529;48.170;17.138;2022-09-03T19:05:18;21.90;40.80
14875;DHT22;7529;48.170;17.138;2022-09-03T19:09:55;21.70;40.90
14875;DHT22;7529;48.170;17.138;2022-09-03T19:15:03;21.50;41.00
14875;DHT22;7529;48.170;17.138;2022-09-03T19:20:14;21.30;41.80
14875;DHT22;7529;48.170;17.138;2022-09-03T19:25:10;21.20;41.50
14875;DHT22;7529;48.170;17.138;2022-09-03T19:30:03;21.10;42.10
14875;DHT22;7529;48.170;17.138;2022-09-03T19:34:51;20.90;42.30
14875;DHT22;7529;48.170;17.138;2022-09-03T19:39:53;20.80;42.60
14875;DHT22;7529;48.170;17.138;2022-09-03T19:45:11;20.60;43.00
14875;DHT22;7529;48.170;17.138;2022-09-03T19:54:52;20.40;43.10
14875;DHT22;7529;48.170;17.138;2022-09-03T19:59:25;20.30;43.40
14875;DHT22;7529;48.170;17.138;2022-09-03T20:04:13;20.40;43.40
14875;DHT22;7529;48.170;17.138;2022-09-03T20:08:45;20.40;44.00
14875;DHT22;7529;48.170;17.138;2022-09-03T20:13:18;20.30;43.70
14875;DHT22;7529;48.170;17.138;2022-09-03T20:45:49;20.40;45.00
14875;DHT22;7529;48.170;17.138;2022-09-03T20:50:22;20.40;44.60
14875;DHT22;7529;48.170;17.138;2022-09-03T20:55:37;20.30;45.30
14875;DHT22;7529;48.170;17.138;2022-09-03T21:00:13;20.10;45.60
14875;DHT22;7529;48.170;17.138;2022-09-03T21:14:05;19.90;46.10
14875;DHT22;7529;48.170;17.138;2022-09-03T21:18:32;19.80;45.90
14875;DHT22;7529;48.170;17.138;2022-09-03T21:23:19;19.70;46.30
14875;DHT22;7529;48.170;17.138;2022-09-03T21:27:49;19.50;46.60
14875;DHT22;7529;48.170;17.138;2022-09-03T21:32:15;19.40;46.90
14875;DHT22;7529;48.170;17.138;2022-09-03T21:36:30;19.20;47.00
14875;DHT22;7529;48.170;17.138;2022-09-03T21:40:57;19.00;47.10
14875;DHT22;7529;48.170;17.138;2022-09-03T21:45:24;18.90;47.60
14875;DHT22;7529;48.170;17.138;2022-09-03T21:50:19;18.80;48.00
14875;DHT22;7529;48.170;17.138;2022-09-03T21:54:33;18.70;48.90
14875;DHT22;7529;48.170;17.138;2022-09-03T22:03:27;18.50;48.60
14875;DHT22;7529;48.170;17.138;2022-09-03T22:08:09;18.60;48.20
14875;DHT22;7529;48.170;17.138;2022-09-03T22:17:12;18.70;48.90
14875;DHT22;7529;48.170;17.138;2022-09-03T22:21:56;18.80;48.70
14875;DHT22;7529;48.170;17.138;2022-09-03T22:31:03;18.80;49.20
14875;DHT22;7529;48.170;17.138;2022-09-03T22:40:07;18.80;49.50
14875;DHT22;7529;48.170;17.138;2022-09-03T22:49:18;18.80;49.90
14875;DHT22;7529;48.170;17.138;2022-09-03T22:57:59;18.70;49.60
14875;DHT22;7529;48.170;17.138;2022-09-03T23:02:20;18.70;50.00
14875;DHT22;7529;48.170;17.138;2022-09-03T23:06:36;18.70;50.00
14875;DHT22;7529;48.170;17.138;2022-09-03T23:10:59;18.70;49.90
14875;DHT22;7529;48.170;17.138;2022-09-03T23:15:26;18.80;50.10
14875;DHT22;7529;48.170;17.138;2022-09-03T23:19:43;18.80;50.30
14875;DHT22;7529;48.170;17.138;2022-09-03T23:24:16;18.80;50.10
14875;DHT22;7529;48.170;17.138;2022-09-03T23:28:34;18.80;50.50
14875;DHT22;7529;48.170;17.138;2022-09-03T23:32:52;18.80;50.30
14875;DHT22;7529;48.170;17.138;2022-09-03T23:37:24;18.90;50.40
14875;DHT22;7529;48.170;17.138;2022-09-03T23:46:46;18.80;50.60
